createdAt,value
2022-10-21T00:00:55.547Z,3.92
2022-10-21T00:03:26.475Z,3.83
2022-10-21T00:05:54.786Z,3.76
2022-10-21T00:08:22.690Z,3.81
2022-10-21T00:10:59.592Z,3.89
2022-10-21T00:13:29.615Z,3.80
2022-10-21T00:16:10.887Z,3.74
2022-10-21T00:18:40.387Z,3.74
2022-10-21T00:21:16.949Z,3.78
2022-10-21T00:23:44.759Z,3.83
2022-10-21T00:26:13.823Z,3.82
2022-10-21T00:28:42.262Z,3.83
2022-10-21T00:31:11.981Z,3.74
2022-10-21T00:33:39.498Z,3.66
2022-10-21T00:36:08.278Z,3.68
2022-10-21T00:38:36.438Z,3.65
2022-10-21T00:41:03.812Z,3.62
2022-10-21T00:43:31.270Z,3.49
2022-10-21T00:46:05.238Z,3.54
2022-10-21T00:48:39.568Z,3.49
2022-10-21T00:51:14.437Z,3.41
2022-10-21T00:53:46.936Z,3.53
2022-10-21T00:56:24.442Z,3.52
2022-10-21T00:58:54.798Z,3.58
2022-10-21T01:01:22.180Z,3.58
2022-10-21T01:03:50.861Z,3.58
2022-10-21T01:06:23.153Z,3.58
2022-10-21T01:08:54.649Z,3.62
2022-10-21T01:11:24.349Z,3.64
2022-10-21T01:14:48.903Z,3.58
2022-10-21T01:17:47.304Z,3.80
2022-10-21T01:20:54.763Z,3.71
2022-10-21T01:27:06.641Z,3.70
2022-10-21T01:30:06.627Z,3.76
2022-10-21T01:32:51.978Z,3.80
2022-10-21T01:36:09.504Z,3.78
2022-10-21T01:39:18.028Z,3.65
2022-10-21T01:42:00.567Z,3.75
2022-10-21T01:44:49.234Z,3.64
2022-10-21T01:47:37.620Z,3.52
2022-10-21T01:50:25.173Z,3.49
2022-10-21T01:53:00.412Z,3.71
2022-10-21T01:55:32.083Z,3.61
2022-10-21T01:58:09.474Z,3.47
2022-10-21T02:00:39.001Z,3.47
2022-10-21T02:03:11.899Z,3.38
2022-10-21T02:05:40.321Z,3.39
2022-10-21T02:08:07.999Z,3.45
2022-10-21T02:10:45.812Z,3.39
2022-10-21T02:13:22.753Z,3.35
2022-10-21T02:15:56.325Z,3.38
2022-10-21T02:18:26.872Z,3.39
2022-10-21T02:21:03.174Z,3.33
2022-10-21T02:23:54.865Z,3.29
2022-10-21T02:26:28.056Z,3.39
2022-10-21T02:28:58.358Z,3.33
2022-10-21T02:32:21.714Z,3.31
2022-10-21T02:35:25.371Z,3.43
2022-10-21T02:38:40.554Z,3.51
2022-10-21T02:41:20.647Z,3.63
2022-10-21T02:44:01.653Z,3.91
2022-10-21T02:46:38.085Z,3.99
2022-10-21T02:49:05.554Z,3.99
2022-10-21T02:51:32.857Z,3.87
2022-10-21T02:54:00.028Z,4.00
2022-10-21T02:58:55.214Z,4.28
2022-10-21T03:01:22.668Z,4.34
2022-10-21T03:03:49.866Z,4.58
2022-10-21T03:06:17.078Z,4.65
2022-10-21T03:08:44.450Z,4.52
2022-10-21T03:11:11.772Z,4.58
2022-10-21T03:13:38.986Z,4.64
2022-10-21T03:16:06.930Z,4.79
2022-10-21T03:18:34.293Z,4.74
2022-10-21T03:21:01.576Z,4.64
2022-10-21T03:23:29.053Z,4.76
2022-10-21T03:25:56.231Z,4.80
2022-10-21T03:28:23.491Z,4.62
2022-10-21T03:30:50.639Z,4.45
2022-10-21T03:33:17.801Z,4.25
2022-10-21T03:35:45.481Z,4.18
2022-10-21T03:38:12.699Z,4.18
2022-10-21T03:40:40.009Z,4.13
2022-10-21T03:43:07.300Z,4.19
2022-10-21T03:45:34.608Z,4.39
2022-10-21T03:48:01.857Z,4.66
2022-10-21T03:50:29.253Z,4.71
2022-10-21T03:52:56.753Z,4.87
2022-10-21T03:55:25.384Z,4.96
2022-10-21T03:57:53.847Z,5.08
2022-10-21T04:00:21.504Z,5.06
2022-10-21T04:02:48.960Z,4.85
2022-10-21T04:05:16.785Z,4.78
2022-10-21T04:07:46.080Z,4.66
2022-10-21T04:10:15.460Z,4.58
2022-10-21T04:12:42.676Z,4.53
2022-10-21T04:15:14.248Z,4.81
2022-10-21T04:17:45.021Z,4.77
2022-10-21T04:20:12.285Z,4.89
2022-10-21T04:22:39.806Z,4.92
2022-10-21T04:25:09.409Z,4.69
2022-10-21T04:27:36.902Z,4.68
2022-10-21T04:30:05.071Z,4.95
2022-10-21T04:32:32.264Z,4.71
2022-10-21T04:34:59.492Z,4.63
2022-10-21T04:37:26.723Z,4.64
2022-10-21T04:39:53.934Z,4.77
2022-10-21T04:42:21.258Z,5.02
2022-10-21T04:44:48.491Z,4.83
2022-10-21T04:47:16.012Z,4.60
2022-10-21T04:49:43.297Z,4.50
2022-10-21T04:52:10.687Z,4.39
2022-10-21T04:54:37.925Z,4.29
2022-10-21T04:57:05.388Z,4.31
2022-10-21T04:59:32.902Z,4.21
2022-10-21T05:04:32.342Z,4.00
2022-10-21T05:06:59.642Z,4.00
2022-10-21T05:09:26.821Z,4.06
2022-10-21T05:11:54.099Z,4.04
2022-10-21T05:14:22.712Z,3.98
2022-10-21T05:16:50.528Z,3.96
2022-10-21T05:19:18.068Z,3.94
2022-10-21T05:21:47.134Z,4.01
2022-10-21T05:24:16.166Z,4.05
2022-10-21T05:26:43.516Z,4.15
2022-10-21T05:29:10.796Z,4.29
2022-10-21T05:31:38.102Z,4.51
2022-10-21T05:34:05.328Z,4.99
2022-10-21T05:36:32.558Z,5.33
2022-10-21T05:38:59.852Z,5.45
2022-10-21T05:41:27.179Z,5.70
2022-10-21T05:43:54.443Z,5.93
2022-10-21T05:46:21.671Z,5.97
2022-10-21T05:51:26.393Z,5.99
2022-10-21T05:53:54.648Z,5.79
2022-10-21T05:56:22.470Z,5.86
2022-10-21T05:58:51.539Z,5.84
2022-10-21T06:01:18.980Z,5.88
2022-10-21T06:03:46.234Z,6.25
2022-10-21T06:06:13.438Z,6.84
2022-10-21T06:08:40.897Z,7.08
2022-10-21T06:11:19.834Z,7.25
2022-10-21T06:13:47.972Z,7.19
2022-10-21T06:16:16.918Z,7.22
2022-10-21T06:18:44.507Z,7.34
2022-10-21T06:21:12.459Z,7.61
2022-10-21T06:23:39.875Z,8.08
2022-10-21T06:26:12.226Z,8.37
2022-10-21T06:28:43.279Z,8.51
2022-10-21T06:31:15.375Z,8.61
2022-10-21T06:33:42.915Z,8.64
2022-10-21T06:36:10.546Z,8.84
2022-10-21T06:38:38.397Z,8.95
2022-10-21T06:41:13.309Z,9.04
2022-10-21T06:43:42.661Z,9.14
2022-10-21T06:46:13.998Z,9.42
2022-10-21T06:48:41.849Z,9.58
2022-10-21T06:51:20.023Z,10.08
2022-10-21T06:53:52.246Z,10.57
2022-10-21T06:56:20.091Z,10.71
2022-10-21T06:58:49.298Z,10.78
2022-10-21T07:01:34.367Z,10.75
2022-10-21T07:04:04.015Z,10.30
2022-10-21T07:09:06.233Z,10.29
2022-10-21T07:11:33.581Z,10.49
2022-10-21T07:14:01.871Z,10.32
2022-10-21T07:16:33.696Z,10.34
2022-10-21T07:19:01.002Z,10.50
2022-10-21T07:21:30.848Z,10.51
2022-10-21T07:24:00.206Z,10.67
2022-10-21T07:26:31.600Z,10.60
2022-10-21T07:29:00.748Z,10.62
2022-10-21T07:31:31.411Z,10.69
2022-10-21T07:34:00.702Z,10.70
2022-10-21T07:36:32.112Z,10.90
2022-10-21T07:39:04.417Z,11.00
2022-10-21T07:41:37.232Z,11.17
2022-10-21T07:44:06.741Z,11.31
2022-10-21T07:46:34.819Z,11.43
2022-10-21T07:49:02.175Z,11.44
2022-10-21T07:51:31.338Z,11.67
2022-10-21T07:54:00.525Z,12.08
2022-10-21T07:56:35.673Z,12.49
2022-10-21T07:59:07.778Z,12.78
2022-10-21T08:01:40.493Z,12.92
2022-10-21T08:04:07.890Z,13.09
2022-10-21T08:06:35.714Z,13.65
2022-10-21T08:09:04.806Z,13.71
2022-10-21T08:11:34.378Z,14.00
2022-10-21T08:14:03.256Z,15.19
2022-10-21T08:16:30.603Z,15.37
2022-10-21T08:19:00.972Z,15.24
2022-10-21T08:21:31.261Z,15.38
2022-10-21T08:24:02.138Z,15.15
2022-10-21T08:26:29.872Z,14.88
2022-10-21T08:31:29.335Z,14.56
2022-10-21T08:33:56.572Z,14.42
2022-10-21T08:36:26.128Z,14.32
2022-10-21T08:38:54.404Z,14.14
2022-10-21T08:41:30.878Z,14.01
2022-10-21T08:44:06.903Z,14.00
2022-10-21T08:46:42.436Z,13.72
2022-10-21T08:49:51.084Z,13.59
2022-10-21T08:52:50.603Z,13.62
2022-10-21T08:55:36.002Z,13.71
2022-10-21T08:58:04.583Z,13.58
2022-10-21T09:00:43.126Z,13.61
2022-10-21T09:03:31.817Z,13.39
2022-10-21T09:06:04.502Z,13.30
2022-10-21T09:08:41.808Z,13.38
2022-10-21T09:11:33.399Z,13.37
2022-10-21T09:14:40.288Z,13.39
2022-10-21T09:17:35.403Z,13.07
2022-10-21T09:20:27.588Z,12.82
2022-10-21T09:23:28.475Z,12.68
2022-10-21T09:26:35.403Z,12.46
2022-10-21T09:29:24.677Z,12.46
2022-10-21T09:31:56.259Z,12.55
2022-10-21T09:35:19.814Z,12.65
2022-10-21T09:37:50.716Z,12.68
2022-10-21T09:40:28.605Z,12.64
2022-10-21T09:43:02.227Z,12.86
2022-10-21T09:45:46.263Z,13.07
2022-10-21T09:48:19.135Z,13.01
2022-10-21T09:51:17.728Z,13.01
2022-10-21T09:53:57.167Z,12.96
2022-10-21T09:56:36.118Z,12.99
2022-10-21T09:59:14.931Z,12.98
2022-10-21T10:01:43.907Z,13.19
2022-10-21T10:04:24.693Z,13.42
2022-10-21T10:06:52.451Z,13.38
2022-10-21T10:09:37.596Z,13.44
2022-10-21T10:12:14.976Z,13.75
2022-10-21T10:14:45.673Z,13.88
2022-10-21T10:17:26.128Z,14.13
2022-10-21T10:20:05.784Z,14.20
2022-10-21T10:23:05.092Z,14.24
2022-10-21T10:25:36.186Z,14.34
2022-10-21T10:28:09.305Z,14.53
2022-10-21T10:30:42.441Z,14.65
2022-10-21T10:33:31.260Z,14.81
2022-10-21T10:36:09.588Z,15.24
2022-10-21T10:38:45.213Z,15.88
2022-10-21T10:41:16.938Z,16.61
2022-10-21T10:43:54.385Z,16.82
2022-10-21T10:46:43.909Z,16.84
2022-10-21T10:49:14.188Z,16.62
2022-10-21T10:51:42.631Z,16.72
2022-10-21T10:54:28.323Z,16.96
2022-10-21T10:57:15.736Z,17.21
2022-10-21T10:59:51.647Z,18.55
2022-10-21T11:02:49.641Z,18.97
2022-10-21T11:05:25.865Z,19.56
2022-10-21T11:07:59.409Z,19.95
2022-10-21T11:10:34.036Z,19.07
2022-10-21T11:13:10.027Z,19.18
2022-10-21T11:15:55.799Z,21.41
2022-10-21T11:18:38.051Z,21.71
2022-10-21T11:21:52.925Z,20.15
2022-10-21T11:24:32.563Z,19.49
2022-10-21T11:27:07.397Z,19.25
2022-10-21T11:29:59.488Z,19.30
2022-10-21T11:32:53.671Z,19.78
2022-10-21T11:35:45.741Z,20.00
2022-10-21T11:38:44.087Z,19.74
2022-10-21T11:41:43.955Z,19.28
2022-10-21T11:44:42.764Z,21.34
2022-10-21T11:47:49.803Z,23.92
2022-10-21T11:50:59.507Z,24.98
2022-10-21T11:53:50.538Z,24.76
2022-10-21T11:56:58.206Z,23.32
2022-10-21T11:59:57.971Z,23.22
2022-10-21T12:02:40.775Z,22.99
2022-10-21T12:05:59.546Z,22.71
2022-10-21T12:09:20.066Z,22.39
2022-10-21T12:12:17.592Z,21.00
2022-10-21T12:15:00.262Z,19.72
2022-10-21T12:17:27.634Z,19.04
2022-10-21T12:20:01.879Z,18.79
2022-10-21T12:22:33.225Z,18.79
2022-10-21T12:25:12.422Z,18.67
2022-10-21T12:27:53.783Z,18.84
2022-10-21T12:30:56.852Z,18.89
2022-10-21T12:33:37.233Z,18.32
2022-10-21T12:36:16.083Z,18.17
2022-10-21T12:38:49.513Z,18.51
2022-10-21T12:41:39.015Z,18.61
2022-10-21T12:44:37.998Z,18.36
2022-10-21T12:47:21.274Z,18.12
2022-10-21T12:50:30.045Z,17.61
2022-10-21T12:53:33.217Z,16.98
2022-10-21T12:56:01.351Z,16.72
2022-10-21T12:58:45.781Z,16.46
2022-10-21T13:01:43.138Z,16.15
2022-10-21T13:04:33.502Z,15.87
2022-10-21T13:07:16.857Z,15.82
2022-10-21T13:10:09.720Z,15.83
2022-10-21T13:12:37.500Z,15.89
2022-10-21T13:15:23.272Z,15.97
2022-10-21T13:17:54.265Z,15.87
2022-10-21T13:20:21.453Z,15.78
2022-10-21T13:23:01.929Z,15.55
2022-10-21T13:25:36.284Z,15.34
2022-10-21T13:28:12.732Z,15.10
2022-10-21T13:30:58.865Z,15.02
2022-10-21T13:33:31.611Z,14.98
2022-10-21T13:36:13.465Z,15.07
2022-10-21T13:38:55.521Z,14.95
2022-10-21T13:41:30.239Z,15.02
2022-10-21T13:44:05.623Z,15.01
2022-10-21T13:46:39.177Z,14.89
2022-10-21T13:49:32.731Z,14.93
2022-10-21T13:52:00.056Z,14.92
2022-10-21T13:54:34.176Z,14.79
2022-10-21T13:57:07.720Z,14.68
2022-10-21T13:59:35.043Z,14.66
2022-10-21T14:02:03.681Z,14.53
2022-10-21T14:04:39.481Z,14.39
2022-10-21T14:07:16.633Z,14.36
2022-10-21T14:09:55.135Z,14.36
2022-10-21T14:12:33.504Z,14.22
2022-10-21T14:15:15.838Z,14.17
2022-10-21T14:17:50.287Z,14.15
2022-10-21T14:20:34.076Z,14.00
2022-10-21T14:23:08.677Z,13.93
2022-10-21T14:25:36.212Z,13.88
2022-10-21T14:28:05.278Z,13.84
2022-10-21T14:30:34.896Z,13.80
2022-10-21T14:33:05.194Z,13.68
2022-10-21T14:35:32.459Z,13.63
2022-10-21T14:38:03.305Z,13.54
2022-10-21T14:40:39.700Z,13.34
2022-10-21T14:43:20.534Z,13.21
2022-10-21T14:45:53.805Z,13.06
2022-10-21T14:48:53.789Z,12.94
2022-10-21T14:51:22.998Z,12.89
2022-10-21T14:54:05.244Z,12.96
2022-10-21T14:56:43.335Z,12.81
2022-10-21T14:59:32.197Z,12.61
2022-10-21T15:02:01.212Z,12.47
2022-10-21T15:04:43.741Z,12.42
2022-10-21T15:07:33.657Z,12.36
2022-10-21T15:10:04.250Z,12.43
2022-10-21T15:12:47.863Z,12.42
2022-10-21T15:15:54.008Z,12.40
2022-10-21T15:18:43.913Z,12.36
2022-10-21T15:21:47.155Z,12.28
2022-10-21T15:24:44.313Z,12.19
2022-10-21T15:27:37.153Z,12.12
2022-10-21T15:30:32.259Z,12.15
2022-10-21T15:32:59.605Z,12.14
2022-10-21T15:35:26.858Z,12.13
2022-10-21T15:37:54.819Z,12.09
2022-10-21T15:40:22.736Z,12.01
2022-10-21T15:42:50.535Z,12.05
2022-10-21T15:45:22.984Z,12.02
2022-10-21T15:47:54.892Z,11.96
2022-10-21T15:50:26.684Z,11.95
2022-10-21T15:55:26.505Z,11.86
2022-10-21T15:57:53.720Z,11.83
2022-10-21T16:00:23.398Z,11.80
2022-10-21T16:02:51.955Z,11.83
2022-10-21T16:05:21.563Z,11.84
2022-10-21T16:07:49.128Z,11.81
2022-10-21T16:10:25.635Z,11.84
2022-10-21T16:12:53.430Z,11.71
2022-10-21T16:15:22.096Z,11.58
2022-10-21T16:17:53.906Z,11.51
2022-10-21T16:20:26.365Z,11.43
2022-10-21T16:22:53.982Z,11.38
2022-10-21T16:25:21.411Z,11.31
2022-10-21T16:27:56.183Z,11.29
2022-10-21T16:30:35.617Z,11.20
2022-10-21T16:33:02.857Z,11.26
2022-10-21T16:35:30.086Z,11.35
2022-10-21T16:37:57.456Z,11.35
2022-10-21T16:40:31.977Z,11.32
2022-10-21T16:42:59.353Z,11.24
2022-10-21T16:45:33.522Z,11.10
2022-10-21T16:48:05.428Z,11.10
2022-10-21T16:50:45.097Z,11.34
2022-10-21T16:53:17.088Z,11.37
2022-10-21T16:55:44.426Z,11.23
2022-10-21T16:58:11.646Z,11.11
2022-10-21T17:00:38.950Z,11.11
2022-10-21T17:03:06.358Z,11.11
2022-10-21T17:08:06.576Z,11.10
2022-10-21T17:10:33.993Z,11.18
2022-10-21T17:13:01.695Z,11.15
2022-10-21T17:15:29.147Z,11.08
2022-10-21T17:17:56.488Z,11.11
2022-10-21T17:20:24.075Z,11.08
2022-10-21T17:22:51.311Z,11.07
2022-10-21T17:25:18.650Z,11.05
2022-10-21T17:27:46.260Z,11.02
2022-10-21T17:30:13.528Z,11.01
2022-10-21T17:35:18.790Z,10.92
2022-10-21T17:37:51.630Z,10.92
2022-10-21T17:40:23.939Z,10.87
2022-10-21T17:42:51.283Z,10.91
2022-10-21T17:45:22.576Z,10.85
2022-10-21T17:47:50.914Z,10.83
2022-10-21T17:50:23.669Z,10.75
2022-10-21T17:52:54.490Z,10.71
2022-10-21T17:55:22.444Z,10.68
2022-10-21T17:57:50.184Z,10.62
2022-10-21T18:00:17.572Z,10.49
2022-10-21T18:02:44.925Z,10.49
2022-10-21T18:05:12.281Z,10.53
2022-10-21T18:07:39.754Z,10.44
2022-10-21T18:10:08.244Z,10.47
2022-10-21T18:12:35.775Z,10.60
2022-10-21T18:15:03.924Z,10.60
2022-10-21T18:17:32.579Z,10.56
2022-10-21T18:19:59.854Z,10.58
2022-10-21T18:22:27.162Z,10.64
2022-10-21T18:24:54.478Z,10.62
2022-10-21T18:27:21.908Z,10.59
2022-10-21T18:29:49.271Z,10.46
2022-10-21T18:32:16.603Z,10.55
2022-10-21T18:34:43.840Z,10.72
2022-10-21T18:37:11.094Z,10.89
2022-10-21T18:39:38.440Z,10.87
2022-10-21T18:42:05.767Z,10.78
2022-10-21T18:44:33.005Z,10.95
2022-10-21T18:47:00.238Z,10.97
2022-10-21T18:49:27.461Z,10.98
2022-10-21T18:51:54.687Z,10.98
2022-10-21T18:54:22.135Z,10.90
2022-10-21T18:56:49.402Z,10.86
2022-10-21T18:59:16.644Z,10.83
2022-10-21T19:01:44.105Z,10.74
2022-10-21T19:06:46.807Z,10.60
2022-10-21T19:09:22.721Z,10.52
2022-10-21T19:11:50.314Z,10.48
2022-10-21T19:14:17.830Z,10.49
2022-10-21T19:16:47.949Z,10.48
2022-10-21T19:19:16.457Z,10.49
2022-10-21T19:21:43.838Z,10.32
2022-10-21T19:24:11.197Z,10.16
2022-10-21T19:26:41.079Z,10.11
2022-10-21T19:29:16.244Z,10.11
2022-10-21T19:31:44.789Z,10.11
2022-10-21T19:34:22.468Z,10.16
2022-10-21T19:36:50.102Z,10.24
2022-10-21T19:39:17.725Z,10.23
2022-10-21T19:41:45.242Z,10.19
2022-10-21T19:44:12.807Z,10.25
2022-10-21T19:46:40.151Z,10.24
2022-10-21T19:49:09.201Z,10.22
2022-10-21T19:51:37.618Z,10.22
2022-10-21T19:54:07.372Z,10.20
2022-10-21T19:56:35.259Z,10.16
2022-10-21T19:59:03.239Z,10.23
2022-10-21T20:01:32.342Z,10.26
2022-10-21T20:04:02.009Z,10.26
2022-10-21T20:06:37.743Z,10.26
2022-10-21T20:09:10.390Z,10.29
2022-10-21T20:11:39.682Z,10.15
2022-10-21T20:14:07.631Z,10.14
2022-10-21T20:16:38.850Z,10.16
2022-10-21T20:19:06.905Z,10.12
2022-10-21T20:21:35.602Z,9.91
2022-10-21T20:24:03.365Z,9.86
2022-10-21T20:26:30.999Z,9.88
2022-10-21T20:29:00.898Z,9.86
2022-10-21T20:31:29.095Z,9.76
2022-10-21T20:33:56.637Z,9.67
2022-10-21T20:36:30.497Z,9.68
2022-10-21T20:38:59.925Z,9.72
2022-10-21T20:41:34.919Z,9.69
2022-10-21T20:44:06.867Z,9.62
2022-10-21T20:46:37.277Z,9.41
2022-10-21T20:49:07.350Z,9.31
2022-10-21T20:51:37.297Z,9.14
2022-10-21T20:54:09.656Z,9.16
2022-10-21T20:56:40.147Z,9.03
2022-10-21T20:59:10.735Z,9.00
2022-10-21T21:01:42.055Z,9.00
2022-10-21T21:04:14.303Z,8.94
2022-10-21T21:06:47.952Z,8.95
2022-10-21T21:12:04.702Z,8.96
2022-10-21T21:14:32.288Z,8.99
2022-10-21T21:16:59.589Z,8.90
2022-10-21T21:19:26.911Z,8.80
2022-10-21T21:21:54.442Z,8.82
2022-10-21T21:24:21.794Z,8.76
2022-10-21T21:26:49.168Z,8.71
2022-10-21T21:29:16.459Z,8.66
2022-10-21T21:31:43.965Z,8.65
2022-10-21T21:34:11.949Z,8.76
2022-10-21T21:36:39.351Z,8.71
2022-10-21T21:39:08.020Z,8.90
2022-10-21T21:41:36.078Z,8.97
2022-10-21T21:44:06.023Z,8.93
2022-10-21T21:46:33.371Z,8.84
2022-10-21T21:49:05.571Z,8.71
2022-10-21T21:51:36.272Z,8.56
2022-10-21T21:54:06.816Z,8.50
2022-10-21T21:56:34.271Z,8.58
2022-10-21T21:59:01.777Z,8.67
2022-10-21T22:01:30.113Z,8.66
2022-10-21T22:03:58.537Z,8.76
2022-10-21T22:06:30.121Z,8.79
2022-10-21T22:08:57.663Z,8.74
2022-10-21T22:11:29.553Z,8.71
2022-10-21T22:13:57.061Z,8.70
2022-10-21T22:16:27.452Z,8.58
2022-10-21T22:18:55.052Z,8.38
2022-10-21T22:21:22.910Z,8.43
2022-10-21T22:23:51.569Z,8.31
2022-10-21T22:26:23.230Z,8.33
2022-10-21T22:28:50.564Z,8.29
2022-10-21T22:31:19.366Z,8.22
2022-10-21T22:33:47.050Z,8.22
2022-10-21T22:36:16.590Z,8.15
2022-10-21T22:38:45.357Z,8.15
2022-10-21T22:41:13.685Z,8.15
2022-10-21T22:43:42.862Z,8.10
2022-10-21T22:48:58.151Z,7.97
2022-10-21T22:51:25.610Z,7.90
2022-10-21T22:53:55.459Z,7.83
2022-10-21T22:56:26.090Z,7.82
2022-10-21T22:58:53.546Z,7.77
2022-10-21T23:01:21.096Z,7.83
2022-10-21T23:03:48.318Z,7.73
2022-10-21T23:06:15.755Z,7.78
2022-10-21T23:08:43.127Z,7.88
2022-10-21T23:11:10.395Z,7.89
2022-10-21T23:13:37.569Z,7.95
2022-10-21T23:16:05.373Z,7.94
2022-10-21T23:18:33.666Z,8.05
2022-10-21T23:21:00.877Z,8.11
2022-10-21T23:23:28.334Z,8.15
2022-10-21T23:25:55.672Z,8.24
2022-10-21T23:28:22.864Z,8.21
2022-10-21T23:30:50.204Z,8.27
2022-10-21T23:33:17.405Z,8.24
2022-10-21T23:35:44.744Z,8.28
2022-10-21T23:38:12.007Z,8.25
2022-10-21T23:40:39.396Z,8.21
2022-10-21T23:43:06.569Z,8.24
2022-10-21T23:45:33.815Z,8.27
2022-10-21T23:48:01.452Z,8.18
2022-10-21T23:50:28.987Z,8.26
2022-10-21T23:52:56.207Z,8.32
2022-10-21T23:55:23.465Z,8.32
2022-10-21T23:57:50.735Z,8.29
